sensor_id;sensor_type;location;lat;lon;timestamp;P1;durP1;ratioP1;P2;durP2;ratioP2
23470;SDS011;11908;50.806;4.424;2023-01-08T00:02:07;6.68;;;3.00;;
23470;SDS011;11908;50.806;4.424;2023-01-08T00:04:33;10.23;;;3.22;;
23470;SDS011;11908;50.806;4.424;2023-01-08T00:06:59;8.05;;;2.95;;
23470;SDS011;11908;50.806;4.424;2023-01-08T00:09:25;13.23;;;3.25;;
23470;SDS011;11908;50.806;4.424;2023-01-08T00:11:50;7.47;;;2.80;;
23470;SDS011;11908;50.806;4.424;2023-01-08T00:14:16;7.57;;;2.95;;
23470;SDS011;11908;50.806;4.424;2023-01-08T00:16:42;5.68;;;3.03;;
23470;SDS011;11908;50.806;4.424;2023-01-08T00:19:09;10.60;;;3.10;;
23470;SDS011;11908;50.806;4.424;2023-01-08T00:21:36;7.97;;;2.90;;
23470;SDS011;11908;50.806;4.424;2023-01-08T00:24:05;9.60;;;2.88;;
23470;SDS011;11908;50.806;4.424;2023-01-08T00:26:31;7.28;;;3.13;;
23470;SDS011;11908;50.806;4.424;2023-01-08T00:28:56;7.35;;;3.20;;
23470;SDS011;11908;50.806;4.424;2023-01-08T00:31:22;3.22;;;1.40;;
23470;SDS011;11908;50.806;4.424;2023-01-08T00:33:48;4.53;;;1.30;;
23470;SDS011;11908;50.806;4.424;2023-01-08T00:36:15;4.05;;;1.00;;
23470;SDS011;11908;50.806;4.424;2023-01-08T00:38:42;1.58;;;0.47;;
23470;SDS011;11908;50.806;4.424;2023-01-08T00:41:09;2.15;;;0.88;;
23470;SDS011;11908;50.806;4.424;2023-01-08T00:43:35;2.97;;;1.08;;
23470;SDS011;11908;50.806;4.424;2023-01-08T00:46:02;1.98;;;0.90;;
23470;SDS011;11908;50.806;4.424;2023-01-08T00:48:28;3.95;;;0.90;;
23470;SDS011;11908;50.806;4.424;2023-01-08T00:50:55;6.28;;;1.15;;
23470;SDS011;11908;50.806;4.424;2023-01-08T00:53:21;1.90;;;0.93;;
23470;SDS011;11908;50.806;4.424;2023-01-08T00:55:47;6.85;;;1.10;;
23470;SDS011;11908;50.806;4.424;2023-01-08T00:58:13;3.88;;;1.02;;
23470;SDS011;11908;50.806;4.424;2023-01-08T01:00:40;9.60;;;1.02;;
23470;SDS011;11908;50.806;4.424;2023-01-08T01:03:06;3.58;;;1.13;;
23470;SDS011;11908;50.806;4.424;2023-01-08T01:05:31;5.10;;;1.13;;
23470;SDS011;11908;50.806;4.424;2023-01-08T01:07:57;4.95;;;1.10;;
23470;SDS011;11908;50.806;4.424;2023-01-08T01:10:23;3.80;;;1.00;;
23470;SDS011;11908;50.806;4.424;2023-01-08T01:12:49;7.13;;;0.98;;
23470;SDS011;11908;50.806;4.424;2023-01-08T01:15:16;7.20;;;1.00;;
23470;SDS011;11908;50.806;4.424;2023-01-08T01:17:42;6.30;;;1.00;;
23470;SDS011;11908;50.806;4.424;2023-01-08T01:20:10;4.47;;;0.88;;
23470;SDS011;11908;50.806;4.424;2023-01-08T01:22:39;8.98;;;1.27;;
23470;SDS011;11908;50.806;4.424;2023-01-08T01:25:05;2.50;;;1.10;;
23470;SDS011;11908;50.806;4.424;2023-01-08T01:27:31;4.32;;;1.00;;
23470;SDS011;11908;50.806;4.424;2023-01-08T01:29:57;10.73;;;1.88;;
23470;SDS011;11908;50.806;4.424;2023-01-08T01:32:29;5.88;;;1.27;;
23470;SDS011;11908;50.806;4.424;2023-01-08T01:34:55;5.57;;;1.10;;
23470;SDS011;11908;50.806;4.424;2023-01-08T01:37:21;5.57;;;1.20;;
23470;SDS011;11908;50.806;4.424;2023-01-08T01:39:46;6.32;;;1.27;;
23470;SDS011;11908;50.806;4.424;2023-01-08T01:42:13;6.82;;;1.60;;
23470;SDS011;11908;50.806;4.424;2023-01-08T01:45:00;5.35;;;1.58;;
23470;SDS011;11908;50.806;4.424;2023-01-08T01:47:41;4.93;;;1.48;;
23470;SDS011;11908;50.806;4.424;2023-01-08T01:50:11;6.68;;;1.75;;
23470;SDS011;11908;50.806;4.424;2023-01-08T01:55:26;7.05;;;1.70;;
23470;SDS011;11908;50.806;4.424;2023-01-08T01:58:15;7.05;;;1.92;;
23470;SDS011;11908;50.806;4.424;2023-01-08T02:00:40;6.82;;;1.77;;
23470;SDS011;11908;50.806;4.424;2023-01-08T02:03:07;7.25;;;1.77;;
23470;SDS011;11908;50.806;4.424;2023-01-08T02:08:40;7.53;;;1.75;;
23470;SDS011;11908;50.806;4.424;2023-01-08T02:11:19;8.35;;;1.83;;
23470;SDS011;11908;50.806;4.424;2023-01-08T02:13:57;4.28;;;2.00;;
23470;SDS011;11908;50.806;4.424;2023-01-08T02:16:36;6.07;;;2.03;;
23470;SDS011;11908;50.806;4.424;2023-01-08T02:19:16;10.20;;;2.45;;
23470;SDS011;11908;50.806;4.424;2023-01-08T02:27:09;5.72;;;2.10;;
23470;SDS011;11908;50.806;4.424;2023-01-08T02:29:36;13.32;;;2.80;;
23470;SDS011;11908;50.806;4.424;2023-01-08T02:32:03;11.18;;;2.50;;
23470;SDS011;11908;50.806;4.424;2023-01-08T02:34:29;6.85;;;2.50;;
23470;SDS011;11908;50.806;4.424;2023-01-08T02:36:56;11.07;;;2.75;;
23470;SDS011;11908;50.806;4.424;2023-01-08T02:42:15;10.50;;;2.80;;
23470;SDS011;11908;50.806;4.424;2023-01-08T02:44:55;8.18;;;2.60;;
23470;SDS011;11908;50.806;4.424;2023-01-08T02:47:27;8.60;;;2.90;;
23470;SDS011;11908;50.806;4.424;2023-01-08T02:49:56;6.50;;;3.47;;
23470;SDS011;11908;50.806;4.424;2023-01-08T02:52:40;9.38;;;3.10;;
23470;SDS011;11908;50.806;4.424;2023-01-08T02:55:12;7.00;;;3.38;;
23470;SDS011;11908;50.806;4.424;2023-01-08T02:57:39;7.53;;;3.08;;
23470;SDS011;11908;50.806;4.424;2023-01-08T03:00:06;7.18;;;2.70;;
23470;SDS011;11908;50.806;4.424;2023-01-08T03:02:32;7.90;;;2.58;;
23470;SDS011;11908;50.806;4.424;2023-01-08T03:05:04;5.38;;;1.90;;
23470;SDS011;11908;50.806;4.424;2023-01-08T03:07:37;4.88;;;1.70;;
23470;SDS011;11908;50.806;4.424;2023-01-08T03:10:02;1.75;;;1.30;;
23470;SDS011;11908;50.806;4.424;2023-01-08T03:15:08;4.40;;;1.27;;
23470;SDS011;11908;50.806;4.424;2023-01-08T03:17:36;4.20;;;1.65;;
23470;SDS011;11908;50.806;4.424;2023-01-08T03:22:38;3.10;;;1.23;;
23470;SDS011;11908;50.806;4.424;2023-01-08T03:25:06;3.95;;;1.60;;
23470;SDS011;11908;50.806;4.424;2023-01-08T03:27:33;7.63;;;1.17;;
23470;SDS011;11908;50.806;4.424;2023-01-08T03:30:04;5.13;;;1.27;;
23470;SDS011;11908;50.806;4.424;2023-01-08T03:32:31;8.15;;;1.73;;
23470;SDS011;11908;50.806;4.424;2023-01-08T03:34:58;6.10;;;1.38;;
23470;SDS011;11908;50.806;4.424;2023-01-08T03:37:27;9.60;;;1.73;;
23470;SDS011;11908;50.806;4.424;2023-01-08T03:40:06;8.82;;;1.45;;
23470;SDS011;11908;50.806;4.424;2023-01-08T03:42:40;4.85;;;1.33;;
23470;SDS011;11908;50.806;4.424;2023-01-08T03:45:06;6.63;;;1.70;;
23470;SDS011;11908;50.806;4.424;2023-01-08T03:47:32;9.10;;;2.15;;
23470;SDS011;11908;50.806;4.424;2023-01-08T03:50:02;8.05;;;1.88;;
23470;SDS011;11908;50.806;4.424;2023-01-08T03:52:31;14.35;;;2.63;;
23470;SDS011;11908;50.806;4.424;2023-01-08T03:54:57;8.07;;;1.20;;
23470;SDS011;11908;50.806;4.424;2023-01-08T03:57:23;7.88;;;1.20;;
23470;SDS011;11908;50.806;4.424;2023-01-08T03:59:49;7.35;;;1.60;;
23470;SDS011;11908;50.806;4.424;2023-01-08T04:02:14;9.27;;;1.30;;
23470;SDS011;11908;50.806;4.424;2023-01-08T04:04:40;7.43;;;1.23;;
23470;SDS011;11908;50.806;4.424;2023-01-08T04:07:06;7.85;;;1.38;;
23470;SDS011;11908;50.806;4.424;2023-01-08T04:09:33;10.68;;;1.50;;
23470;SDS011;11908;50.806;4.424;2023-01-08T04:11:58;6.30;;;1.25;;
23470;SDS011;11908;50.806;4.424;2023-01-08T04:14:24;6.72;;;1.35;;
23470;SDS011;11908;50.806;4.424;2023-01-08T04:16:50;9.27;;;1.58;;
23470;SDS011;11908;50.806;4.424;2023-01-08T04:19:15;10.98;;;1.70;;
23470;SDS011;11908;50.806;4.424;2023-01-08T04:21:41;7.13;;;1.60;;
23470;SDS011;11908;50.806;4.424;2023-01-08T04:24:07;9.93;;;1.88;;
23470;SDS011;11908;50.806;4.424;2023-01-08T04:26:33;11.70;;;1.83;;
23470;SDS011;11908;50.806;4.424;2023-01-08T04:29:01;14.30;;;1.60;;
23470;SDS011;11908;50.806;4.424;2023-01-08T04:31:27;11.45;;;1.60;;
23470;SDS011;11908;50.806;4.424;2023-01-08T04:33:53;11.13;;;2.63;;
23470;SDS011;11908;50.806;4.424;2023-01-08T04:36:19;12.73;;;1.73;;
23470;SDS011;11908;50.806;4.424;2023-01-08T04:38:45;9.02;;;2.00;;
23470;SDS011;11908;50.806;4.424;2023-01-08T04:41:11;9.73;;;1.90;;
23470;SDS011;11908;50.806;4.424;2023-01-08T04:43:36;9.43;;;2.60;;
23470;SDS011;11908;50.806;4.424;2023-01-08T04:46:03;8.95;;;2.85;;
23470;SDS011;11908;50.806;4.424;2023-01-08T04:48:31;14.05;;;3.10;;
23470;SDS011;11908;50.806;4.424;2023-01-08T04:50:57;15.98;;;3.78;;
23470;SDS011;11908;50.806;4.424;2023-01-08T04:53:24;14.98;;;3.60;;
23470;SDS011;11908;50.806;4.424;2023-01-08T04:55:50;14.82;;;3.92;;
23470;SDS011;11908;50.806;4.424;2023-01-08T04:58:16;12.15;;;3.63;;
23470;SDS011;11908;50.806;4.424;2023-01-08T05:00:42;12.18;;;4.28;;
23470;SDS011;11908;50.806;4.424;2023-01-08T05:03:07;14.90;;;4.50;;
23470;SDS011;11908;50.806;4.424;2023-01-08T05:05:33;19.75;;;5.60;;
23470;SDS011;11908;50.806;4.424;2023-01-08T05:07:59;18.70;;;4.40;;
23470;SDS011;11908;50.806;4.424;2023-01-08T05:10:25;14.15;;;4.05;;
23470;SDS011;11908;50.806;4.424;2023-01-08T05:12:50;14.88;;;4.47;;
23470;SDS011;11908;50.806;4.424;2023-01-08T05:15:16;18.42;;;4.63;;
23470;SDS011;11908;50.806;4.424;2023-01-08T05:17:42;15.05;;;4.70;;
23470;SDS011;11908;50.806;4.424;2023-01-08T05:20:07;15.23;;;5.05;;
23470;SDS011;11908;50.806;4.424;2023-01-08T05:22:34;19.15;;;5.22;;
23470;SDS011;11908;50.806;4.424;2023-01-08T05:24:59;16.55;;;5.30;;
23470;SDS011;11908;50.806;4.424;2023-01-08T05:27:26;14.02;;;5.30;;
23470;SDS011;11908;50.806;4.424;2023-01-08T05:29:52;18.00;;;5.05;;
23470;SDS011;11908;50.806;4.424;2023-01-08T05:32:18;15.52;;;5.05;;
23470;SDS011;11908;50.806;4.424;2023-01-08T05:34:44;12.35;;;5.13;;
23470;SDS011;11908;50.806;4.424;2023-01-08T05:37:10;13.48;;;4.03;;
23470;SDS011;11908;50.806;4.424;2023-01-08T05:39:36;12.52;;;3.65;;
23470;SDS011;11908;50.806;4.424;2023-01-08T05:42:01;15.88;;;4.22;;
23470;SDS011;11908;50.806;4.424;2023-01-08T05:44:27;15.10;;;3.92;;
23470;SDS011;11908;50.806;4.424;2023-01-08T05:46:53;13.93;;;3.55;;
23470;SDS011;11908;50.806;4.424;2023-01-08T05:49:19;10.98;;;3.22;;
23470;SDS011;11908;50.806;4.424;2023-01-08T05:51:48;10.75;;;2.97;;
23470;SDS011;11908;50.806;4.424;2023-01-08T05:54:14;14.68;;;2.60;;
23470;SDS011;11908;50.806;4.424;2023-01-08T05:56:40;9.32;;;2.13;;
23470;SDS011;11908;50.806;4.424;2023-01-08T05:59:09;11.18;;;2.70;;
23470;SDS011;11908;50.806;4.424;2023-01-08T06:01:36;13.20;;;2.38;;
23470;SDS011;11908;50.806;4.424;2023-01-08T06:04:02;9.32;;;2.28;;
23470;SDS011;11908;50.806;4.424;2023-01-08T06:06:28;9.00;;;2.22;;
23470;SDS011;11908;50.806;4.424;2023-01-08T06:08:53;9.02;;;1.65;;
23470;SDS011;11908;50.806;4.424;2023-01-08T06:11:19;9.60;;;1.85;;
23470;SDS011;11908;50.806;4.424;2023-01-08T06:13:45;10.15;;;1.88;;
23470;SDS011;11908;50.806;4.424;2023-01-08T06:16:10;4.97;;;1.70;;
23470;SDS011;11908;50.806;4.424;2023-01-08T06:18:37;10.57;;;1.83;;
23470;SDS011;11908;50.806;4.424;2023-01-08T06:21:03;11.23;;;2.10;;
23470;SDS011;11908;50.806;4.424;2023-01-08T06:23:30;10.30;;;2.13;;
23470;SDS011;11908;50.806;4.424;2023-01-08T06:25:57;15.07;;;2.28;;
23470;SDS011;11908;50.806;4.424;2023-01-08T06:28:24;8.88;;;1.92;;
23470;SDS011;11908;50.806;4.424;2023-01-08T06:30:50;11.77;;;2.05;;
23470;SDS011;11908;50.806;4.424;2023-01-08T06:33:16;17.50;;;1.95;;
23470;SDS011;11908;50.806;4.424;2023-01-08T06:35:42;10.02;;;1.98;;
23470;SDS011;11908;50.806;4.424;2023-01-08T06:38:08;12.52;;;1.92;;
23470;SDS011;11908;50.806;4.424;2023-01-08T06:40:33;11.20;;;2.13;;
23470;SDS011;11908;50.806;4.424;2023-01-08T06:43:00;12.98;;;2.03;;
23470;SDS011;11908;50.806;4.424;2023-01-08T06:45:30;14.15;;;2.10;;
23470;SDS011;11908;50.806;4.424;2023-01-08T06:47:59;11.43;;;2.08;;
23470;SDS011;11908;50.806;4.424;2023-01-08T06:50:29;13.15;;;2.25;;
23470;SDS011;11908;50.806;4.424;2023-01-08T06:52:56;13.43;;;2.33;;
23470;SDS011;11908;50.806;4.424;2023-01-08T06:55:22;13.02;;;2.85;;
23470;SDS011;11908;50.806;4.424;2023-01-08T06:57:52;9.25;;;1.73;;
23470;SDS011;11908;50.806;4.424;2023-01-08T07:00:22;6.68;;;1.67;;
23470;SDS011;11908;50.806;4.424;2023-01-08T07:02:50;10.80;;;2.00;;
23470;SDS011;11908;50.806;4.424;2023-01-08T07:05:16;14.38;;;2.50;;
23470;SDS011;11908;50.806;4.424;2023-01-08T07:07:42;14.30;;;2.10;;
23470;SDS011;11908;50.806;4.424;2023-01-08T07:10:08;17.65;;;2.40;;
23470;SDS011;11908;50.806;4.424;2023-01-08T07:12:34;13.55;;;2.08;;
23470;SDS011;11908;50.806;4.424;2023-01-08T07:15:00;12.70;;;2.38;;
23470;SDS011;11908;50.806;4.424;2023-01-08T07:17:26;9.65;;;2.03;;
23470;SDS011;11908;50.806;4.424;2023-01-08T07:19:52;11.95;;;2.67;;
23470;SDS011;11908;50.806;4.424;2023-01-08T07:22:18;10.43;;;2.17;;
23470;SDS011;11908;50.806;4.424;2023-01-08T07:24:45;8.68;;;2.10;;
23470;SDS011;11908;50.806;4.424;2023-01-08T07:27:10;11.68;;;2.30;;
23470;SDS011;11908;50.806;4.424;2023-01-08T07:29:36;16.33;;;2.47;;
23470;SDS011;11908;50.806;4.424;2023-01-08T07:32:01;16.92;;;2.30;;
23470;SDS011;11908;50.806;4.424;2023-01-08T07:34:27;12.00;;;2.72;;
23470;SDS011;11908;50.806;4.424;2023-01-08T07:36:53;14.15;;;2.53;;
23470;SDS011;11908;50.806;4.424;2023-01-08T07:39:19;10.55;;;2.20;;
23470;SDS011;11908;50.806;4.424;2023-01-08T07:41:45;14.30;;;2.95;;
23470;SDS011;11908;50.806;4.424;2023-01-08T07:44:10;14.38;;;2.33;;
23470;SDS011;11908;50.806;4.424;2023-01-08T07:46:36;15.32;;;2.15;;
23470;SDS011;11908;50.806;4.424;2023-01-08T07:49:02;16.83;;;2.25;;
23470;SDS011;11908;50.806;4.424;2023-01-08T07:51:29;11.10;;;2.10;;
23470;SDS011;11908;50.806;4.424;2023-01-08T07:53:54;8.68;;;2.00;;
23470;SDS011;11908;50.806;4.424;2023-01-08T07:56:20;11.85;;;2.65;;
23470;SDS011;11908;50.806;4.424;2023-01-08T07:58:47;14.05;;;4.63;;
23470;SDS011;11908;50.806;4.424;2023-01-08T08:01:13;17.85;;;5.60;;
23470;SDS011;11908;50.806;4.424;2023-01-08T08:03:39;13.82;;;3.20;;
23470;SDS011;11908;50.806;4.424;2023-01-08T08:06:05;30.60;;;9.13;;
23470;SDS011;11908;50.806;4.424;2023-01-08T08:08:32;22.23;;;5.63;;
23470;SDS011;11908;50.806;4.424;2023-01-08T08:10:58;11.77;;;4.25;;
23470;SDS011;11908;50.806;4.424;2023-01-08T08:13:24;10.23;;;2.33;;
23470;SDS011;11908;50.806;4.424;2023-01-08T08:15:50;10.40;;;2.78;;
23470;SDS011;11908;50.806;4.424;2023-01-08T08:18:16;11.90;;;3.20;;
23470;SDS011;11908;50.806;4.424;2023-01-08T08:20:41;8.73;;;2.30;;
23470;SDS011;11908;50.806;4.424;2023-01-08T08:23:11;10.40;;;3.38;;
23470;SDS011;11908;50.806;4.424;2023-01-08T08:25:39;11.32;;;3.33;;
23470;SDS011;11908;50.806;4.424;2023-01-08T08:28:08;8.35;;;2.55;;
23470;SDS011;11908;50.806;4.424;2023-01-08T08:30:35;13.30;;;2.80;;
23470;SDS011;11908;50.806;4.424;2023-01-08T08:33:02;10.15;;;2.15;;
23470;SDS011;11908;50.806;4.424;2023-01-08T08:35:29;15.93;;;3.22;;
23470;SDS011;11908;50.806;4.424;2023-01-08T08:37:56;16.40;;;3.97;;
23470;SDS011;11908;50.806;4.424;2023-01-08T08:40:22;5.32;;;2.53;;
23470;SDS011;11908;50.806;4.424;2023-01-08T08:42:48;10.68;;;3.55;;
23470;SDS011;11908;50.806;4.424;2023-01-08T08:45:26;5.45;;;2.05;;
23470;SDS011;11908;50.806;4.424;2023-01-08T08:47:54;12.70;;;2.25;;
23470;SDS011;11908;50.806;4.424;2023-01-08T08:50:20;4.13;;;2.05;;
23470;SDS011;11908;50.806;4.424;2023-01-08T08:52:46;6.82;;;2.22;;
23470;SDS011;11908;50.806;4.424;2023-01-08T08:55:13;6.65;;;1.92;;
23470;SDS011;11908;50.806;4.424;2023-01-08T08:57:44;6.50;;;2.08;;
23470;SDS011;11908;50.806;4.424;2023-01-08T09:00:11;3.92;;;1.20;;
23470;SDS011;11908;50.806;4.424;2023-01-08T09:02:38;2.42;;;0.90;;
23470;SDS011;11908;50.806;4.424;2023-01-08T09:05:04;2.15;;;0.68;;
23470;SDS011;11908;50.806;4.424;2023-01-08T09:07:30;2.13;;;0.95;;
23470;SDS011;11908;50.806;4.424;2023-01-08T09:09:56;2.03;;;0.90;;
23470;SDS011;11908;50.806;4.424;2023-01-08T09:12:21;2.75;;;1.00;;
23470;SDS011;11908;50.806;4.424;2023-01-08T09:14:47;0.90;;;0.57;;
23470;SDS011;11908;50.806;4.424;2023-01-08T09:17:14;2.33;;;0.70;;
23470;SDS011;11908;50.806;4.424;2023-01-08T09:19:39;2.90;;;0.90;;
23470;SDS011;11908;50.806;4.424;2023-01-08T09:22:05;1.88;;;0.60;;
23470;SDS011;11908;50.806;4.424;2023-01-08T09:24:31;1.13;;;0.50;;
23470;SDS011;11908;50.806;4.424;2023-01-08T09:26:57;2.95;;;0.63;;
23470;SDS011;11908;50.806;4.424;2023-01-08T09:29:23;2.08;;;0.70;;
23470;SDS011;11908;50.806;4.424;2023-01-08T09:31:49;0.93;;;0.50;;
23470;SDS011;11908;50.806;4.424;2023-01-08T09:34:15;3.03;;;0.82;;
23470;SDS011;11908;50.806;4.424;2023-01-08T09:36:40;1.15;;;0.57;;
23470;SDS011;11908;50.806;4.424;2023-01-08T09:39:06;1.40;;;0.68;;
23470;SDS011;11908;50.806;4.424;2023-01-08T09:41:33;1.92;;;1.10;;
23470;SDS011;11908;50.806;4.424;2023-01-08T09:44:03;5.30;;;2.70;;
23470;SDS011;11908;50.806;4.424;2023-01-08T09:46:30;3.15;;;1.85;;
23470;SDS011;11908;50.806;4.424;2023-01-08T09:48:57;3.85;;;1.30;;
23470;SDS011;11908;50.806;4.424;2023-01-08T09:51:34;2.75;;;1.00;;
23470;SDS011;11908;50.806;4.424;2023-01-08T09:54:02;1.08;;;0.70;;
23470;SDS011;11908;50.806;4.424;2023-01-08T09:56:31;2.13;;;0.77;;
23470;SDS011;11908;50.806;4.424;2023-01-08T09:58:59;4.28;;;1.00;;
23470;SDS011;11908;50.806;4.424;2023-01-08T10:01:36;2.75;;;0.80;;
23470;SDS011;11908;50.806;4.424;2023-01-08T10:09:26;2.50;;;0.98;;
23470;SDS011;11908;50.806;4.424;2023-01-08T10:12:00;5.22;;;1.13;;
23470;SDS011;11908;50.806;4.424;2023-01-08T10:14:32;2.55;;;0.90;;
23470;SDS011;11908;50.806;4.424;2023-01-08T10:19:55;2.67;;;1.00;;
23470;SDS011;11908;50.806;4.424;2023-01-08T10:22:24;3.10;;;1.23;;
23470;SDS011;11908;50.806;4.424;2023-01-08T10:25:02;6.85;;;1.05;;
23470;SDS011;11908;50.806;4.424;2023-01-08T10:27:44;3.58;;;1.00;;
23470;SDS011;11908;50.806;4.424;2023-01-08T10:30:16;2.90;;;0.82;;
23470;SDS011;11908;50.806;4.424;2023-01-08T10:33:02;6.60;;;1.50;;
23470;SDS011;11908;50.806;4.424;2023-01-08T10:35:31;6.50;;;1.65;;
23470;SDS011;11908;50.806;4.424;2023-01-08T10:37:59;3.30;;;1.38;;
23470;SDS011;11908;50.806;4.424;2023-01-08T10:43:07;4.88;;;1.30;;
23470;SDS011;11908;50.806;4.424;2023-01-08T10:45:53;4.30;;;1.30;;
23470;SDS011;11908;50.806;4.424;2023-01-08T10:48:45;6.07;;;1.42;;
23470;SDS011;11908;50.806;4.424;2023-01-08T10:53:42;4.18;;;1.23;;
23470;SDS011;11908;50.806;4.424;2023-01-08T10:56:21;4.25;;;1.02;;
23470;SDS011;11908;50.806;4.424;2023-01-08T10:58:48;4.22;;;1.30;;
23470;SDS011;11908;50.806;4.424;2023-01-08T11:01:15;5.10;;;1.30;;
23470;SDS011;11908;50.806;4.424;2023-01-08T11:03:42;4.32;;;1.27;;
23470;SDS011;11908;50.806;4.424;2023-01-08T11:06:15;2.92;;;1.00;;
23470;SDS011;11908;50.806;4.424;2023-01-08T11:08:49;3.50;;;1.20;;
23470;SDS011;11908;50.806;4.424;2023-01-08T11:11:16;5.03;;;1.10;;
23470;SDS011;11908;50.806;4.424;2023-01-08T11:13:58;6.60;;;1.20;;
23470;SDS011;11908;50.806;4.424;2023-01-08T11:16:35;4.03;;;1.20;;
23470;SDS011;11908;50.806;4.424;2023-01-08T11:19:02;5.25;;;1.20;;
23470;SDS011;11908;50.806;4.424;2023-01-08T11:21:30;6.50;;;2.20;;
23470;SDS011;11908;50.806;4.424;2023-01-08T11:26:35;3.63;;;1.08;;
23470;SDS011;11908;50.806;4.424;2023-01-08T11:29:12;4.35;;;1.02;;
23470;SDS011;11908;50.806;4.424;2023-01-08T11:34:17;9.60;;;1.50;;
23470;SDS011;11908;50.806;4.424;2023-01-08T11:39:45;4.82;;;1.13;;
23470;SDS011;11908;50.806;4.424;2023-01-08T11:42:33;7.13;;;1.92;;
23470;SDS011;11908;50.806;4.424;2023-01-08T11:45:10;9.73;;;3.20;;
23470;SDS011;11908;50.806;4.424;2023-01-08T11:53:46;9.77;;;2.95;;
23470;SDS011;11908;50.806;4.424;2023-01-08T12:00:08;10.68;;;2.95;;
23470;SDS011;11908;50.806;4.424;2023-01-08T12:05:14;5.43;;;2.10;;
23470;SDS011;11908;50.806;4.424;2023-01-08T12:07:53;13.68;;;3.08;;
23470;SDS011;11908;50.806;4.424;2023-01-08T12:13:30;17.08;;;7.93;;
23470;SDS011;11908;50.806;4.424;2023-01-08T12:19:25;4.75;;;1.58;;
23470;SDS011;11908;50.806;4.424;2023-01-08T12:24:58;4.93;;;1.48;;
23470;SDS011;11908;50.806;4.424;2023-01-08T12:27:51;4.82;;;1.02;;
23470;SDS011;11908;50.806;4.424;2023-01-08T12:33:06;6.78;;;1.60;;
23470;SDS011;11908;50.806;4.424;2023-01-08T12:35:38;8.98;;;2.25;;
23470;SDS011;11908;50.806;4.424;2023-01-08T12:38:17;5.97;;;1.30;;
23470;SDS011;11908;50.806;4.424;2023-01-08T12:41:08;5.90;;;1.60;;
23470;SDS011;11908;50.806;4.424;2023-01-08T12:46:10;4.90;;;1.73;;
23470;SDS011;11908;50.806;4.424;2023-01-08T12:48:40;4.43;;;1.30;;
23470;SDS011;11908;50.806;4.424;2023-01-08T12:51:12;9.30;;;1.83;;
23470;SDS011;11908;50.806;4.424;2023-01-08T13:07:47;6.10;;;1.20;;
23470;SDS011;11908;50.806;4.424;2023-01-08T13:12:56;8.00;;;2.05;;
23470;SDS011;11908;50.806;4.424;2023-01-08T13:15:24;5.95;;;2.00;;
23470;SDS011;11908;50.806;4.424;2023-01-08T13:17:51;4.43;;;1.30;;
23470;SDS011;11908;50.806;4.424;2023-01-08T13:20:23;10.52;;;1.88;;
23470;SDS011;11908;50.806;4.424;2023-01-08T13:22:52;6.80;;;1.80;;
23470;SDS011;11908;50.806;4.424;2023-01-08T13:27:46;4.78;;;1.48;;
23470;SDS011;11908;50.806;4.424;2023-01-08T13:30:30;8.30;;;1.40;;
23470;SDS011;11908;50.806;4.424;2023-01-08T13:38:36;9.50;;;1.42;;
23470;SDS011;11908;50.806;4.424;2023-01-08T13:41:02;4.32;;;1.38;;
23470;SDS011;11908;50.806;4.424;2023-01-08T13:43:34;3.67;;;1.30;;
23470;SDS011;11908;50.806;4.424;2023-01-08T13:46:22;8.95;;;1.55;;
23470;SDS011;11908;50.806;4.424;2023-01-08T13:56:40;7.00;;;1.55;;
23470;SDS011;11908;50.806;4.424;2023-01-08T14:01:52;3.63;;;1.20;;
23470;SDS011;11908;50.806;4.424;2023-01-08T14:04:19;6.47;;;1.08;;
23470;SDS011;11908;50.806;4.424;2023-01-08T14:06:46;6.93;;;1.38;;
23470;SDS011;11908;50.806;4.424;2023-01-08T14:09:22;4.78;;;1.30;;
23470;SDS011;11908;50.806;4.424;2023-01-08T14:11:51;3.58;;;1.30;;
23470;SDS011;11908;50.806;4.424;2023-01-08T14:14:20;5.03;;;1.15;;
23470;SDS011;11908;50.806;4.424;2023-01-08T14:16:48;5.15;;;1.13;;
23470;SDS011;11908;50.806;4.424;2023-01-08T14:19:16;4.47;;;1.15;;
23470;SDS011;11908;50.806;4.424;2023-01-08T14:22:01;5.63;;;1.33;;
23470;SDS011;11908;50.806;4.424;2023-01-08T14:24:27;7.03;;;1.05;;
23470;SDS011;11908;50.806;4.424;2023-01-08T14:26:57;11.57;;;1.40;;
23470;SDS011;11908;50.806;4.424;2023-01-08T14:29:27;6.13;;;1.40;;
23470;SDS011;11908;50.806;4.424;2023-01-08T14:31:55;6.53;;;1.58;;
23470;SDS011;11908;50.806;4.424;2023-01-08T14:34:26;7.88;;;1.38;;
23470;SDS011;11908;50.806;4.424;2023-01-08T14:36:54;8.07;;;1.30;;
23470;SDS011;11908;50.806;4.424;2023-01-08T14:39:25;5.53;;;1.45;;
23470;SDS011;11908;50.806;4.424;2023-01-08T14:41:59;12.55;;;2.03;;
23470;SDS011;11908;50.806;4.424;2023-01-08T14:44:52;7.95;;;1.50;;
23470;SDS011;11908;50.806;4.424;2023-01-08T14:47:22;6.97;;;1.70;;
23470;SDS011;11908;50.806;4.424;2023-01-08T14:49:54;5.15;;;1.20;;
23470;SDS011;11908;50.806;4.424;2023-01-08T14:52:20;6.75;;;1.30;;
23470;SDS011;11908;50.806;4.424;2023-01-08T14:54:47;6.47;;;1.35;;
23470;SDS011;11908;50.806;4.424;2023-01-08T14:57:17;4.65;;;1.30;;
23470;SDS011;11908;50.806;4.424;2023-01-08T14:59:45;5.78;;;1.77;;
23470;SDS011;11908;50.806;4.424;2023-01-08T15:02:21;6.82;;;1.60;;
23470;SDS011;11908;50.806;4.424;2023-01-08T15:07:57;9.20;;;1.75;;
23470;SDS011;11908;50.806;4.424;2023-01-08T15:10:32;6.72;;;1.52;;
23470;SDS011;11908;50.806;4.424;2023-01-08T15:13:00;7.90;;;1.88;;
23470;SDS011;11908;50.806;4.424;2023-01-08T15:15:29;7.07;;;1.70;;
23470;SDS011;11908;50.806;4.424;2023-01-08T15:17:56;10.25;;;2.30;;
23470;SDS011;11908;50.806;4.424;2023-01-08T15:20:24;8.98;;;2.00;;
23470;SDS011;11908;50.806;4.424;2023-01-08T15:22:56;6.30;;;1.98;;
23470;SDS011;11908;50.806;4.424;2023-01-08T15:25:24;7.28;;;1.67;;
23470;SDS011;11908;50.806;4.424;2023-01-08T15:28:02;7.75;;;2.15;;
23470;SDS011;11908;50.806;4.424;2023-01-08T15:30:38;8.70;;;1.80;;
23470;SDS011;11908;50.806;4.424;2023-01-08T15:33:20;9.27;;;1.67;;
23470;SDS011;11908;50.806;4.424;2023-01-08T15:35:49;7.88;;;2.30;;
23470;SDS011;11908;50.806;4.424;2023-01-08T15:38:16;9.23;;;1.88;;
23470;SDS011;11908;50.806;4.424;2023-01-08T15:40:44;10.45;;;2.72;;
23470;SDS011;11908;50.806;4.424;2023-01-08T15:43:12;9.02;;;2.00;;
23470;SDS011;11908;50.806;4.424;2023-01-08T15:45:40;5.63;;;1.80;;
23470;SDS011;11908;50.806;4.424;2023-01-08T15:48:07;6.38;;;1.60;;
23470;SDS011;11908;50.806;4.424;2023-01-08T15:50:34;11.10;;;1.73;;
23470;SDS011;11908;50.806;4.424;2023-01-08T15:53:13;9.23;;;1.95;;
23470;SDS011;11908;50.806;4.424;2023-01-08T15:55:41;7.65;;;1.60;;
23470;SDS011;11908;50.806;4.424;2023-01-08T15:58:11;6.40;;;1.38;;
23470;SDS011;11908;50.806;4.424;2023-01-08T16:00:38;4.28;;;1.05;;
23470;SDS011;11908;50.806;4.424;2023-01-08T16:03:06;7.63;;;1.83;;
23470;SDS011;11908;50.806;4.424;2023-01-08T16:05:32;8.98;;;2.42;;
23470;SDS011;11908;50.806;4.424;2023-01-08T16:07:59;6.45;;;1.52;;
23470;SDS011;11908;50.806;4.424;2023-01-08T16:10:25;6.60;;;1.40;;
23470;SDS011;11908;50.806;4.424;2023-01-08T16:12:53;9.35;;;2.60;;
23470;SDS011;11908;50.806;4.424;2023-01-08T16:15:18;5.47;;;1.48;;
23470;SDS011;11908;50.806;4.424;2023-01-08T16:17:44;7.05;;;1.83;;
23470;SDS011;11908;50.806;4.424;2023-01-08T16:20:10;6.25;;;2.30;;
23470;SDS011;11908;50.806;4.424;2023-01-08T16:22:37;13.43;;;1.90;;
23470;SDS011;11908;50.806;4.424;2023-01-08T16:25:03;7.70;;;1.90;;
23470;SDS011;11908;50.806;4.424;2023-01-08T16:27:30;8.43;;;2.03;;
23470;SDS011;11908;50.806;4.424;2023-01-08T16:29:56;6.32;;;1.60;;
23470;SDS011;11908;50.806;4.424;2023-01-08T16:32:23;8.88;;;1.90;;
23470;SDS011;11908;50.806;4.424;2023-01-08T16:34:48;9.70;;;1.83;;
23470;SDS011;11908;50.806;4.424;2023-01-08T16:37:14;3.92;;;1.65;;
23470;SDS011;11908;50.806;4.424;2023-01-08T16:39:40;8.60;;;1.80;;